(°C)
11°
11°
11°
12°
12°
12°
12°
(°C)
É
ÉÉN
ÉNy
ÉNy
ÉNy
NÉN
NÉN
(km/h)
10-13
9-15
9-13
10-14
12-15
13-15
14-15
(mm)
0
0
1.1
1.4
0.9
0
0
(%)
38
46
71
71
79
60
39

Napfelkelte

/ -5.3°
sun-icon
UV 2
05:50
17:59
Hold (fogyó félhold) (220°)
19:33
09:11

METAR 46.38°É 44.32°K (URWI)-ért

Idő Feltételek Hőmérséklet/
Harmatpont
Szél Látási viszonyok Időjárás Felhők Légnyomás Módosítás Nyers
11°C / 10°C 360º 8kt 7000m - 1011 - URWI 240200Z AUTO 36004MPS 7000 // ///059/// 11/10 Q1011
11°C / 10°C 360º 6kt 8000m - 1011 - URWI 240130Z AUTO 36003MPS 8000 // ///039/// 11/10 Q1011
11°C / 10°C 20º 6kt >10km - 1011 - URWI 240100Z AUTO 02003MPS 9999 // ///043/// 11/10 Q1011
12°C / 10°C 30º 10kt >10km - 1011 - URWI 240030Z AUTO 03005MPS 9999 // ///040/// 12/10 Q1011
12°C / 10°C 40º 10kt >10km - 1011 - URWI 240000Z AUTO 04005MPS 9999 // ///047/// 12/10 Q1011
12°C / 9°C 30º 6kt >10km - 1011 - URWI 232330Z AUTO 03003MPS 9999 // ///048/// 12/09 Q1011
12°C / 9°C 20º 4kt >10km - 1011 - URWI 232300Z AUTO 02002MPS 9999 // ///047/// 12/09 Q1011
12°C / 10°C 20º 8kt >10km - 1011 - URWI 232230Z AUTO 02004MPS 9999 // ///056/// 12/10 Q1011
12°C / 10°C 20º 6kt >10km - 1011 - URWI 232200Z AUTO 02003MPS 9999 // ///054/// 12/10 Q1011
12°C / 10°C 10º 4kt >10km - 1011 - URWI 232130Z AUTO 01002MPS 9999 // ///053/// 12/10 Q1011
12°C / 11°C 10º 4kt >10km - 1011 - URWI 232100Z AUTO 01002MPS 9999 // ///054/// 12/11 Q1011
13°C / 11°C 40º 6kt >10km - 1011 - URWI 232030Z AUTO 04003MPS 9999 // ///058/// 13/11 Q1011
13°C / 11°C 30º 4kt >10km - 1012 - URWI 232000Z AUTO 03002MPS 9999 // ///064/// 13/11 Q1012
13°C / 11°C 40º 4kt >10km - 1012 - URWI 231930Z AUTO 04002MPS 9999 // ///069/// 13/11 Q1012
13°C / 11°C 10º 4kt >10km - 1012 - URWI 231900Z AUTO 01002MPS 9999 // ///068/// 13/11 Q1012
13°C / 11°C 360º 2kt >10km - 1012 - URWI 231830Z AUTO 36001MPS 9999 // ///068/// 13/11 Q1012
13°C / 11°C 350º 4kt >10km - 1012 - URWI 231800Z AUTO 35002MPS 9999 // ///063/// 13/11 Q1012
13°C / 11°C 10º 4kt >10km - 1012 - URWI 231730Z AUTO 01002MPS 9999 // ///063/// 13/11 Q1012
13°C / 10°C 30º 6kt >10km - 1012 - URWI 231700Z AUTO 03003MPS 9999 // ///071/// 13/10 Q1012
13°C / 11°C 40º 4kt >10km - 1012 - URWI 231630Z AUTO 04002MPS 9999 // ///071/// 13/11 Q1012
13°C / 10°C 20º 4kt >10km - 1011 - URWI 231600Z AUTO 02002MPS 9999 // ///084/// 13/10 Q1011
14°C / 10°C 10º 4kt >10km - 1012 - URWI 231530Z AUTO 01002MPS 9999 // ///053/// 14/10 Q1012
14°C / 9°C 10º 4kt >10km - 1012 - URWI 231500Z AUTO 01002MPS 9999 // ///049/// 14/09 Q1012
VFR 14°C / 9°C 50º 6kt >10km - Scattered Clouds 4700ft 1011 No Significant change. Runway 09: Damp, 51-100% contamination with <1mm, friction coefficient 0.60. URWI 231430Z 05003MPS 9999 SCT047CB 14/09 Q1011 R09/190060 NOSIG

11°C / 10°C

[Több]
Szél 360º 8kt
Látási viszonyok 7000m
Időjárás -
Felhők
Légnyomás 1011
Módosítás -
Nyers URWI 240200Z AUTO 36004MPS 7000 // ///059/// 11/10 Q1011

11°C / 10°C

[Több]
Szél 360º 6kt
Látási viszonyok 8000m
Időjárás -
Felhők
Légnyomás 1011
Módosítás -
Nyers URWI 240130Z AUTO 36003MPS 8000 // ///039/// 11/10 Q1011

11°C / 10°C

[Több]
Szél 20º 6kt
Látási viszonyok >10km
Időjárás -
Felhők
Légnyomás 1011
Módosítás -
Nyers URWI 240100Z AUTO 02003MPS 9999 // ///043/// 11/10 Q1011

12°C / 10°C

[Több]
Szél 30º 10kt
Látási viszonyok >10km
Időjárás -
Felhők
Légnyomás 1011
Módosítás -
Nyers URWI 240030Z AUTO 03005MPS 9999 // ///040/// 12/10 Q1011

12°C / 10°C

[Több]
Szél 40º 10kt
Látási viszonyok >10km
Időjárás -
Felhők
Légnyomás 1011
Módosítás -
Nyers URWI 240000Z AUTO 04005MPS 9999 // ///047/// 12/10 Q1011

12°C / 9°C

[Több]
Szél 30º 6kt
Látási viszonyok >10km
Időjárás -
Felhők
Légnyomás 1011
Módosítás -
Nyers URWI 232330Z AUTO 03003MPS 9999 // ///048/// 12/09 Q1011

12°C / 9°C

[Több]
Szél 20º 4kt
Látási viszonyok >10km
Időjárás -
Felhők
Légnyomás 1011
Módosítás -
Nyers URWI 232300Z AUTO 02002MPS 9999 // ///047/// 12/09 Q1011

12°C / 10°C

[Több]
Szél 20º 8kt
Látási viszonyok >10km
Időjárás -
Felhők
Légnyomás 1011
Módosítás -
Nyers URWI 232230Z AUTO 02004MPS 9999 // ///056/// 12/10 Q1011

12°C / 10°C

[Több]
Szél 20º 6kt
Látási viszonyok >10km
Időjárás -
Felhők
Légnyomás 1011
Módosítás -
Nyers URWI 232200Z AUTO 02003MPS 9999 // ///054/// 12/10 Q1011

12°C / 10°C

[Több]
Szél 10º 4kt
Látási viszonyok >10km
Időjárás -
Felhők
Légnyomás 1011
Módosítás -
Nyers URWI 232130Z AUTO 01002MPS 9999 // ///053/// 12/10 Q1011

12°C / 11°C

[Több]
Szél 10º 4kt
Látási viszonyok >10km
Időjárás -
Felhők
Légnyomás 1011
Módosítás -
Nyers URWI 232100Z AUTO 01002MPS 9999 // ///054/// 12/11 Q1011

13°C / 11°C

[Több]
Szél 40º 6kt
Látási viszonyok >10km
Időjárás -
Felhők
Légnyomás 1011
Módosítás -
Nyers URWI 232030Z AUTO 04003MPS 9999 // ///058/// 13/11 Q1011

13°C / 11°C

[Több]
Szél 30º 4kt
Látási viszonyok >10km
Időjárás -
Felhők
Légnyomás 1012
Módosítás -
Nyers URWI 232000Z AUTO 03002MPS 9999 // ///064/// 13/11 Q1012

13°C / 11°C

[Több]
Szél 40º 4kt
Látási viszonyok >10km
Időjárás -
Felhők
Légnyomás 1012
Módosítás -
Nyers URWI 231930Z AUTO 04002MPS 9999 // ///069/// 13/11 Q1012

13°C / 11°C

[Több]
Szél 10º 4kt
Látási viszonyok >10km
Időjárás -
Felhők
Légnyomás 1012
Módosítás -
Nyers URWI 231900Z AUTO 01002MPS 9999 // ///068/// 13/11 Q1012

13°C / 11°C

[Több]
Szél 360º 2kt
Látási viszonyok >10km
Időjárás -
Felhők
Légnyomás 1012
Módosítás -
Nyers URWI 231830Z AUTO 36001MPS 9999 // ///068/// 13/11 Q1012

13°C / 11°C

[Több]
Szél 350º 4kt
Látási viszonyok >10km
Időjárás -
Felhők
Légnyomás 1012
Módosítás -
Nyers URWI 231800Z AUTO 35002MPS 9999 // ///063/// 13/11 Q1012

13°C / 11°C

[Több]
Szél 10º 4kt
Látási viszonyok >10km
Időjárás -
Felhők
Légnyomás 1012
Módosítás -
Nyers URWI 231730Z AUTO 01002MPS 9999 // ///063/// 13/11 Q1012

13°C / 10°C

[Több]
Szél 30º 6kt
Látási viszonyok >10km
Időjárás -
Felhők
Légnyomás 1012
Módosítás -
Nyers URWI 231700Z AUTO 03003MPS 9999 // ///071/// 13/10 Q1012

13°C / 11°C

[Több]
Szél 40º 4kt
Látási viszonyok >10km
Időjárás -
Felhők
Légnyomás 1012
Módosítás -
Nyers URWI 231630Z AUTO 04002MPS 9999 // ///071/// 13/11 Q1012

13°C / 10°C

[Több]
Szél 20º 4kt
Látási viszonyok >10km
Időjárás -
Felhők
Légnyomás 1011
Módosítás -
Nyers URWI 231600Z AUTO 02002MPS 9999 // ///084/// 13/10 Q1011

14°C / 10°C

[Több]
Szél 10º 4kt
Látási viszonyok >10km
Időjárás -
Felhők
Légnyomás 1012
Módosítás -
Nyers URWI 231530Z AUTO 01002MPS 9999 // ///053/// 14/10 Q1012

14°C / 9°C

[Több]
Szél 10º 4kt
Látási viszonyok >10km
Időjárás -
Felhők
Légnyomás 1012
Módosítás -
Nyers URWI 231500Z AUTO 01002MPS 9999 // ///049/// 14/09 Q1012

VFR

14°C / 9°C

[Több]
Szél 50º 6kt
Látási viszonyok >10km
Időjárás -
Felhők Scattered Clouds 4700ft
Légnyomás 1011
Módosítás No Significant change. Runway 09: Damp, 51-100% contamination with <1mm, friction coefficient 0.60.
Nyers URWI 231430Z 05003MPS 9999 SCT047CB 14/09 Q1011 R09/190060 NOSIG

TAF 46.38°É 44.32°K (URWI)-ért

From till


From till Wind 360º 6kt. Gust 19kt. Visibility 10km or more. Scattered Clouds 2000ft. Scattered Clouds 3000ft.
Temporarly from till Wind 320º 12kt. Gust 25kt. Visibility 6000m. Light Showers Rain . Scattered Clouds 1600ft. Broken Clouds 3000ft.

Nyers: TAF URWI 231055Z 2312/2321 36003G10MPS 9999 SCT020 SCT030CB TEMPO 2312/2321 32006G13MPS 6000 -SHRA SCT016 BKN030CB

Aktuális műholdas és esőképek ezen a helyen: 46.38°É 44.32°K

A helyszín jelölő a következő helyen van elhelyezve: 46.38°É 44.32°K. [Több]

A valós idejű műholdas kép ötvözi a nappali látható fényt az éjszakai infravörös sugárzással. Éjjel a kép nem sötét, mivel az infravörös sugárzás képes érzékelni a hőmérséklet-különbségeket. Sajnos az alacsony felhőket és a ködöt nehéz megkülönböztetni a talaj hőmérsékletétől, így az éjszaka folyamán szinte láthatatlanok lehetnek. A Meteosat európai műholdképei valós időben frissülnek minden 5 percben. A GOES-16/GOES-17 (Észak- és Dél-Amerika) és Himawari (Ázsia) képei 10 percenként frissülnek.

Minden jog fenntartva 2021 EUMETSAT / meteoblue. / Minden jog fenntartva 2021 meteoblue

Radarkép és ultrarövid távú csapadék-előrejelzés a következő helyhez: 46.38°É 44.32°K

Szitálás
Enyhe
Mérsékelt
Erős
Nagyon nehéz
Jégeső

A helyzetjelző helye: 46.38°É 44.32°K. Ez az animáció bemutatja a csapadékradart az elmúlt órára vonatkozóan, valamint előrejelzést az elkövetkező 1 órára. A szitáló eső vagy enyhe hóesés láthatatlan lehet a radar számára. A csapadék intenzitása színkóddal van jelölve, a világoskéktől a narancssárgáig.